sensor_id;sensor_type;location;lat;lon;timestamp;pressure;altitude;pressure_sealevel;temperature;humidity
19845;BME280;10083;51.038;7.012;2023-06-22T00:01:33;103021.88;;;23.14;100.00
19845;BME280;10083;51.038;7.012;2023-06-22T00:04:01;103022.09;;;23.08;100.00
19845;BME280;10083;51.038;7.012;2023-06-22T00:06:58;103001.06;;;23.10;100.00
19845;BME280;10083;51.038;7.012;2023-06-22T00:09:27;103014.78;;;23.09;100.00
19845;BME280;10083;51.038;7.012;2023-06-22T00:11:54;103025.22;;;23.21;100.00
19845;BME280;10083;51.038;7.012;2023-06-22T00:14:21;103021.88;;;23.14;100.00
19845;BME280;10083;51.038;7.012;2023-06-22T00:16:48;103032.63;;;23.19;100.00
19845;BME280;10083;51.038;7.012;2023-06-22T00:19:20;103026.34;;;23.15;100.00
19845;BME280;10083;51.038;7.012;2023-06-22T00:21:47;103030.38;;;23.28;100.00
19845;BME280;10083;51.038;7.012;2023-06-22T00:24:18;103043.13;;;23.29;100.00
19845;BME280;10083;51.038;7.012;2023-06-22T00:26:47;103047.78;;;23.27;100.00
19845;BME280;10083;51.038;7.012;2023-06-22T00:29:15;103060.25;;;23.34;100.00
19845;BME280;10083;51.038;7.012;2023-06-22T00:31:42;103062.03;;;23.35;100.00
19845;BME280;10083;51.038;7.012;2023-06-22T00:34:09;103061.38;;;23.29;100.00
19845;BME280;10083;51.038;7.012;2023-06-22T00:36:44;103060.19;;;23.36;100.00
19845;BME280;10083;51.038;7.012;2023-06-22T00:39:11;103070.09;;;23.38;100.00
19845;BME280;10083;51.038;7.012;2023-06-22T00:41:38;103060.81;;;23.44;100.00
19845;BME280;10083;51.038;7.012;2023-06-22T00:44:06;103060.09;;;23.37;100.00
19845;BME280;10083;51.038;7.012;2023-06-22T00:46:34;103068.13;;;23.42;100.00
19845;BME280;10083;51.038;7.012;2023-06-22T00:49:01;103051.13;;;23.34;100.00
19845;BME280;10083;51.038;7.012;2023-06-22T00:51:31;103054.94;;;23.30;100.00
19845;BME280;10083;51.038;7.012;2023-06-22T00:53:58;103046.28;;;23.19;100.00
19845;BME280;10083;51.038;7.012;2023-06-22T00:56:26;103040.91;;;23.16;100.00
19845;BME280;10083;51.038;7.012;2023-06-22T00:58:55;103038.94;;;23.19;100.00
19845;BME280;10083;51.038;7.012;2023-06-22T01:01:24;103037.38;;;23.14;100.00
19845;BME280;10083;51.038;7.012;2023-06-22T01:03:51;103023.88;;;23.09;100.00
19845;BME280;10083;51.038;7.012;2023-06-22T01:06:28;103013.00;;;23.08;100.00
19845;BME280;10083;51.038;7.012;2023-06-22T01:09:05;102984.22;;;22.97;100.00
19845;BME280;10083;51.038;7.012;2023-06-22T01:11:37;102962.50;;;22.94;100.00
19845;BME280;10083;51.038;7.012;2023-06-22T01:14:12;102909.13;;;22.84;100.00
19845;BME280;10083;51.038;7.012;2023-06-22T01:16:44;102863.75;;;22.80;100.00
19845;BME280;10083;51.038;7.012;2023-06-22T01:19:25;102876.84;;;22.72;100.00
19845;BME280;10083;51.038;7.012;2023-06-22T01:21:56;102868.72;;;22.71;100.00
19845;BME280;10083;51.038;7.012;2023-06-22T01:24:30;102847.97;;;22.65;100.00
19845;BME280;10083;51.038;7.012;2023-06-22T01:27:15;102847.25;;;22.60;100.00
19845;BME280;10083;51.038;7.012;2023-06-22T01:29:50;102852.59;;;22.63;100.00
19845;BME280;10083;51.038;7.012;2023-06-22T01:32:18;102858.00;;;22.65;100.00
19845;BME280;10083;51.038;7.012;2023-06-22T01:34:47;102818.53;;;22.50;100.00
19845;BME280;10083;51.038;7.012;2023-06-22T01:37:18;102841.22;;;22.52;100.00
19845;BME280;10083;51.038;7.012;2023-06-22T01:39:45;102766.19;;;22.39;100.00
19845;BME280;10083;51.038;7.012;2023-06-22T01:42:12;102876.19;;;22.66;100.00
19845;BME280;10083;51.038;7.012;2023-06-22T01:44:40;102929.72;;;22.71;100.00
19845;BME280;10083;51.038;7.012;2023-06-22T01:47:10;102937.03;;;22.71;100.00
19845;BME280;10083;51.038;7.012;2023-06-22T01:49:40;102939.81;;;22.69;100.00
19845;BME280;10083;51.038;7.012;2023-06-22T01:52:09;102928.19;;;22.63;100.00
19845;BME280;10083;51.038;7.012;2023-06-22T01:54:37;102900.25;;;22.56;100.00
19845;BME280;10083;51.038;7.012;2023-06-22T01:57:04;102905.56;;;22.59;100.00
19845;BME280;10083;51.038;7.012;2023-06-22T01:59:37;102929.88;;;22.67;100.00
19845;BME280;10083;51.038;7.012;2023-06-22T02:02:11;102951.91;;;22.62;100.00
19845;BME280;10083;51.038;7.012;2023-06-22T02:04:45;102949.09;;;22.64;100.00
19845;BME280;10083;51.038;7.012;2023-06-22T02:07:14;102963.66;;;22.64;100.00
19845;BME280;10083;51.038;7.012;2023-06-22T02:09:44;102954.88;;;22.56;100.00
19845;BME280;10083;51.038;7.012;2023-06-22T02:12:13;102948.84;;;22.46;100.00
19845;BME280;10083;51.038;7.012;2023-06-22T02:14:44;102929.03;;;22.41;100.00
19845;BME280;10083;51.038;7.012;2023-06-22T02:17:14;102917.47;;;22.35;100.00
19845;BME280;10083;51.038;7.012;2023-06-22T02:19:41;102868.69;;;22.24;100.00
19845;BME280;10083;51.038;7.012;2023-06-22T02:22:08;102881.72;;;22.18;100.00
19845;BME280;10083;51.038;7.012;2023-06-22T02:24:36;102900.09;;;22.13;100.00
19845;BME280;10083;51.038;7.012;2023-06-22T02:27:04;102868.53;;;22.05;100.00
19845;BME280;10083;51.038;7.012;2023-06-22T02:29:32;102791.44;;;21.99;100.00
19845;BME280;10083;51.038;7.012;2023-06-22T02:32:02;102722.59;;;21.92;100.00
19845;BME280;10083;51.038;7.012;2023-06-22T02:34:31;102746.66;;;22.04;100.00
19845;BME280;10083;51.038;7.012;2023-06-22T02:37:00;102728.66;;;21.99;100.00
19845;BME280;10083;51.038;7.012;2023-06-22T02:39:28;102741.31;;;22.01;100.00
19845;BME280;10083;51.038;7.012;2023-06-22T02:41:55;102768.34;;;22.07;100.00
19845;BME280;10083;51.038;7.012;2023-06-22T02:44:22;102781.13;;;22.07;100.00
19845;BME280;10083;51.038;7.012;2023-06-22T02:46:49;102744.16;;;21.98;100.00
19845;BME280;10083;51.038;7.012;2023-06-22T02:49:17;102765.63;;;22.07;100.00
19845;BME280;10083;51.038;7.012;2023-06-22T02:51:47;102779.22;;;22.09;100.00
19845;BME280;10083;51.038;7.012;2023-06-22T02:54:18;102769.13;;;22.11;100.00
19845;BME280;10083;51.038;7.012;2023-06-22T02:56:46;102745.63;;;22.07;100.00
19845;BME280;10083;51.038;7.012;2023-06-22T02:59:14;102760.94;;;22.11;100.00
19845;BME280;10083;51.038;7.012;2023-06-22T03:01:41;102741.25;;;22.03;100.00
19845;BME280;10083;51.038;7.012;2023-06-22T03:04:19;102729.56;;;21.99;100.00
19845;BME280;10083;51.038;7.012;2023-06-22T03:06:48;102697.03;;;21.93;100.00
19845;BME280;10083;51.038;7.012;2023-06-22T03:09:17;102615.41;;;21.87;100.00
19845;BME280;10083;51.038;7.012;2023-06-22T03:11:44;102565.97;;;21.73;100.00
19845;BME280;10083;51.038;7.012;2023-06-22T03:14:11;102535.72;;;21.79;100.00
19845;BME280;10083;51.038;7.012;2023-06-22T03:16:46;102529.69;;;21.71;100.00
19845;BME280;10083;51.038;7.012;2023-06-22T03:19:13;102494.63;;;21.62;100.00
19845;BME280;10083;51.038;7.012;2023-06-22T03:21:40;102498.22;;;21.62;100.00
19845;BME280;10083;51.038;7.012;2023-06-22T03:24:09;102529.00;;;21.66;100.00
19845;BME280;10083;51.038;7.012;2023-06-22T03:26:37;102556.38;;;21.63;100.00
19845;BME280;10083;51.038;7.012;2023-06-22T03:29:04;102559.78;;;21.70;100.00
19845;BME280;10083;51.038;7.012;2023-06-22T03:31:33;102567.06;;;21.69;100.00
19845;BME280;10083;51.038;7.012;2023-06-22T03:34:01;102516.31;;;21.65;100.00
19845;BME280;10083;51.038;7.012;2023-06-22T03:36:28;102577.97;;;21.69;100.00
19845;BME280;10083;51.038;7.012;2023-06-22T03:38:55;102622.19;;;21.77;100.00
19845;BME280;10083;51.038;7.012;2023-06-22T03:41:24;102660.25;;;21.80;100.00
19845;BME280;10083;51.038;7.012;2023-06-22T03:43:51;102603.22;;;21.74;100.00
19845;BME280;10083;51.038;7.012;2023-06-22T03:46:18;102563.00;;;21.79;100.00
19845;BME280;10083;51.038;7.012;2023-06-22T03:48:45;102571.38;;;21.75;100.00
19845;BME280;10083;51.038;7.012;2023-06-22T03:51:12;102595.84;;;21.76;100.00
19845;BME280;10083;51.038;7.012;2023-06-22T03:53:39;102615.47;;;21.86;100.00
19845;BME280;10083;51.038;7.012;2023-06-22T03:56:06;102538.28;;;21.84;100.00
19845;BME280;10083;51.038;7.012;2023-06-22T03:58:34;102608.03;;;21.89;100.00
19845;BME280;10083;51.038;7.012;2023-06-22T04:01:02;102642.09;;;22.02;100.00
19845;BME280;10083;51.038;7.012;2023-06-22T04:03:29;102543.25;;;21.96;100.00
19845;BME280;10083;51.038;7.012;2023-06-22T04:05:56;102494.69;;;21.82;100.00
19845;BME280;10083;51.038;7.012;2023-06-22T04:08:23;102503.25;;;21.95;100.00
19845;BME280;10083;51.038;7.012;2023-06-22T04:10:50;102525.25;;;21.90;100.00
19845;BME280;10083;51.038;7.012;2023-06-22T04:13:17;102511.59;;;21.90;100.00
19845;BME280;10083;51.038;7.012;2023-06-22T04:15:45;102542.50;;;21.92;100.00
19845;BME280;10083;51.038;7.012;2023-06-22T04:18:19;102507.56;;;22.00;100.00
19845;BME280;10083;51.038;7.012;2023-06-22T04:20:46;102472.09;;;22.00;100.00
19845;BME280;10083;51.038;7.012;2023-06-22T04:23:13;102486.28;;;22.08;100.00
19845;BME280;10083;51.038;7.012;2023-06-22T04:25:40;102506.16;;;22.12;100.00
19845;BME280;10083;51.038;7.012;2023-06-22T04:28:07;102511.53;;;22.14;100.00
19845;BME280;10083;51.038;7.012;2023-06-22T04:30:38;102511.59;;;22.12;100.00
19845;BME280;10083;51.038;7.012;2023-06-22T04:33:15;102514.00;;;22.20;100.00
19845;BME280;10083;51.038;7.012;2023-06-22T04:35:48;102424.75;;;22.22;100.00
19845;BME280;10083;51.038;7.012;2023-06-22T04:38:16;102442.13;;;22.19;100.00
19845;BME280;10083;51.038;7.012;2023-06-22T04:40:43;102460.28;;;22.20;100.00
19845;BME280;10083;51.038;7.012;2023-06-22T04:43:10;102475.03;;;22.16;100.00
19845;BME280;10083;51.038;7.012;2023-06-22T04:45:37;102466.50;;;22.24;100.00
19845;BME280;10083;51.038;7.012;2023-06-22T04:48:05;102470.94;;;22.26;100.00
19845;BME280;10083;51.038;7.012;2023-06-22T04:50:33;102468.41;;;22.42;100.00
19845;BME280;10083;51.038;7.012;2023-06-22T04:53:00;102480.28;;;22.41;100.00
19845;BME280;10083;51.038;7.012;2023-06-22T04:55:31;102502.81;;;22.46;100.00
19845;BME280;10083;51.038;7.012;2023-06-22T04:57:58;102591.03;;;22.48;100.00
19845;BME280;10083;51.038;7.012;2023-06-22T05:00:30;102676.94;;;22.61;100.00
19845;BME280;10083;51.038;7.012;2023-06-22T05:02:57;102765.06;;;22.66;100.00
19845;BME280;10083;51.038;7.012;2023-06-22T05:05:28;102771.34;;;22.68;100.00
19845;BME280;10083;51.038;7.012;2023-06-22T05:08:03;102774.97;;;22.69;100.00
19845;BME280;10083;51.038;7.012;2023-06-22T05:10:32;102750.22;;;22.73;100.00
19845;BME280;10083;51.038;7.012;2023-06-22T05:12:59;102614.56;;;22.72;100.00
19845;BME280;10083;51.038;7.012;2023-06-22T05:15:26;102673.47;;;22.79;100.00
19845;BME280;10083;51.038;7.012;2023-06-22T05:17:56;102643.06;;;22.87;100.00
19845;BME280;10083;51.038;7.012;2023-06-22T05:20:23;102607.72;;;22.82;100.00
19845;BME280;10083;51.038;7.012;2023-06-22T05:22:50;102605.75;;;22.86;100.00
19845;BME280;10083;51.038;7.012;2023-06-22T05:25:19;102551.72;;;22.72;100.00
19845;BME280;10083;51.038;7.012;2023-06-22T05:27:46;102605.88;;;22.83;100.00
19845;BME280;10083;51.038;7.012;2023-06-22T05:30:13;102644.84;;;22.88;100.00
19845;BME280;10083;51.038;7.012;2023-06-22T05:32:41;102682.94;;;22.91;100.00
19845;BME280;10083;51.038;7.012;2023-06-22T05:35:09;102722.59;;;23.01;100.00
19845;BME280;10083;51.038;7.012;2023-06-22T05:37:57;102759.69;;;23.07;100.00
19845;BME280;10083;51.038;7.012;2023-06-22T05:40:26;102719.53;;;23.09;100.00
19845;BME280;10083;51.038;7.012;2023-06-22T05:42:54;102656.69;;;23.07;100.00
19845;BME280;10083;51.038;7.012;2023-06-22T05:45:21;102621.16;;;23.07;100.00
19845;BME280;10083;51.038;7.012;2023-06-22T05:47:48;102608.53;;;23.05;100.00
19845;BME280;10083;51.038;7.012;2023-06-22T05:50:15;102631.88;;;23.12;100.00
19845;BME280;10083;51.038;7.012;2023-06-22T05:52:42;102650.66;;;23.19;100.00
19845;BME280;10083;51.038;7.012;2023-06-22T05:55:09;102658.25;;;23.33;100.00
19845;BME280;10083;51.038;7.012;2023-06-22T05:57:38;102700.63;;;23.43;100.00
19845;BME280;10083;51.038;7.012;2023-06-22T06:00:07;102729.91;;;23.61;100.00
19845;BME280;10083;51.038;7.012;2023-06-22T06:02:38;102736.72;;;23.71;100.00
19845;BME280;10083;51.038;7.012;2023-06-22T06:05:09;102770.44;;;23.92;100.00
19845;BME280;10083;51.038;7.012;2023-06-22T06:09:08;102824.94;;;24.17;100.00
19845;BME280;10083;51.038;7.012;2023-06-22T06:11:39;102833.84;;;24.22;100.00
19845;BME280;10083;51.038;7.012;2023-06-22T06:14:06;102849.59;;;24.17;100.00
19845;BME280;10083;51.038;7.012;2023-06-22T06:16:35;102861.50;;;24.16;100.00
19845;BME280;10083;51.038;7.012;2023-06-22T06:19:02;102857.91;;;24.34;100.00
19845;BME280;10083;51.038;7.012;2023-06-22T06:21:30;102882.66;;;24.51;100.00
19845;BME280;10083;51.038;7.012;2023-06-22T06:23:57;102899.56;;;24.61;100.00
19845;BME280;10083;51.038;7.012;2023-06-22T06:26:27;102886.66;;;24.63;100.00
19845;BME280;10083;51.038;7.012;2023-06-22T06:28:56;102883.69;;;24.67;100.00
19845;BME280;10083;51.038;7.012;2023-06-22T06:31:33;102913.91;;;24.85;100.00
19845;BME280;10083;51.038;7.012;2023-06-22T06:34:01;102948.34;;;24.71;100.00
19845;BME280;10083;51.038;7.012;2023-06-22T06:36:31;102981.16;;;25.12;100.00
19845;BME280;10083;51.038;7.012;2023-06-22T06:38:59;102993.88;;;25.50;100.00
19845;BME280;10083;51.038;7.012;2023-06-22T06:41:40;103005.09;;;25.64;100.00
19845;BME280;10083;51.038;7.012;2023-06-22T06:44:14;102971.75;;;25.72;100.00
19845;BME280;10083;51.038;7.012;2023-06-22T06:46:52;103006.88;;;25.65;100.00
19845;BME280;10083;51.038;7.012;2023-06-22T06:49:19;103011.31;;;25.68;100.00
19845;BME280;10083;51.038;7.012;2023-06-22T06:52:10;102983.06;;;25.47;100.00
19845;BME280;10083;51.038;7.012;2023-06-22T06:54:37;102950.28;;;25.44;100.00
19845;BME280;10083;51.038;7.012;2023-06-22T06:57:10;102938.03;;;25.51;100.00
19845;BME280;10083;51.038;7.012;2023-06-22T06:59:40;102928.69;;;25.73;100.00
19845;BME280;10083;51.038;7.012;2023-06-22T07:02:07;102953.91;;;25.98;100.00
19845;BME280;10083;51.038;7.012;2023-06-22T07:04:37;102950.69;;;26.24;100.00
19845;BME280;10083;51.038;7.012;2023-06-22T07:07:34;102954.25;;;26.09;100.00
19845;BME280;10083;51.038;7.012;2023-06-22T07:10:02;102934.06;;;25.93;100.00
19845;BME280;10083;51.038;7.012;2023-06-22T07:12:43;102938.72;;;26.08;100.00
19845;BME280;10083;51.038;7.012;2023-06-22T07:15:11;102929.69;;;26.06;100.00
19845;BME280;10083;51.038;7.012;2023-06-22T07:18:05;102959.31;;;26.17;100.00
19845;BME280;10083;51.038;7.012;2023-06-22T07:20:33;102981.56;;;26.29;100.00
19845;BME280;10083;51.038;7.012;2023-06-22T07:23:02;102985.50;;;26.24;100.00
19845;BME280;10083;51.038;7.012;2023-06-22T07:25:29;102934.53;;;26.01;100.00
19845;BME280;10083;51.038;7.012;2023-06-22T07:28:15;102923.06;;;26.10;100.00
19845;BME280;10083;51.038;7.012;2023-06-22T07:30:42;102927.09;;;26.20;100.00
19845;BME280;10083;51.038;7.012;2023-06-22T07:33:10;102948.94;;;26.56;100.00
19845;BME280;10083;51.038;7.012;2023-06-22T07:35:37;102954.03;;;26.79;100.00
19845;BME280;10083;51.038;7.012;2023-06-22T07:38:10;102962.78;;;27.03;100.00
19845;BME280;10083;51.038;7.012;2023-06-22T07:40:37;103010.31;;;26.89;100.00
19845;BME280;10083;51.038;7.012;2023-06-22T07:43:06;103010.91;;;26.79;100.00
19845;BME280;10083;51.038;7.012;2023-06-22T07:45:35;102996.75;;;26.53;100.00
19845;BME280;10083;51.038;7.012;2023-06-22T07:48:02;102933.44;;;26.71;100.00
19845;BME280;10083;51.038;7.012;2023-06-22T07:50:30;102980.88;;;27.07;100.00
19845;BME280;10083;51.038;7.012;2023-06-22T07:52:57;102975.41;;;27.23;100.00
19845;BME280;10083;51.038;7.012;2023-06-22T07:55:25;102980.72;;;27.10;100.00
19845;BME280;10083;51.038;7.012;2023-06-22T07:58:02;102957.91;;;26.92;100.00
19845;BME280;10083;51.038;7.012;2023-06-22T08:00:30;102949.94;;;26.71;100.00
19845;BME280;10083;51.038;7.012;2023-06-22T08:03:11;102937.69;;;26.76;100.00
19845;BME280;10083;51.038;7.012;2023-06-22T08:05:39;102938.81;;;27.21;100.00
19845;BME280;10083;51.038;7.012;2023-06-22T08:08:06;102963.06;;;27.30;100.00
19845;BME280;10083;51.038;7.012;2023-06-22T08:10:34;102969.97;;;27.21;100.00
19845;BME280;10083;51.038;7.012;2023-06-22T08:13:01;102972.19;;;27.46;100.00
19845;BME280;10083;51.038;7.012;2023-06-22T08:15:37;102981.19;;;27.50;100.00
19845;BME280;10083;51.038;7.012;2023-06-22T08:18:05;102979.31;;;27.66;100.00
19845;BME280;10083;51.038;7.012;2023-06-22T08:20:43;102976.41;;;27.83;100.00
19845;BME280;10083;51.038;7.012;2023-06-22T08:23:10;102955.06;;;27.86;100.00
19845;BME280;10083;51.038;7.012;2023-06-22T08:25:51;102930.47;;;28.13;100.00
19845;BME280;10083;51.038;7.012;2023-06-22T08:28:18;102891.78;;;28.57;100.00
19845;BME280;10083;51.038;7.012;2023-06-22T08:30:45;102827.19;;;28.33;100.00
19845;BME280;10083;51.038;7.012;2023-06-22T08:33:13;102825.09;;;28.51;100.00
19845;BME280;10083;51.038;7.012;2023-06-22T08:35:45;102821.00;;;28.44;100.00
19845;BME280;10083;51.038;7.012;2023-06-22T08:38:13;102833.75;;;28.59;100.00
19845;BME280;10083;51.038;7.012;2023-06-22T08:40:41;102807.06;;;28.73;100.00
19845;BME280;10083;51.038;7.012;2023-06-22T08:43:09;102805.97;;;29.03;100.00
19845;BME280;10083;51.038;7.012;2023-06-22T08:45:37;102852.22;;;28.99;100.00
19845;BME280;10083;51.038;7.012;2023-06-22T08:48:04;102839.34;;;29.12;100.00
19845;BME280;10083;51.038;7.012;2023-06-22T08:50:34;102829.66;;;29.46;100.00
19845;BME280;10083;51.038;7.012;2023-06-22T08:53:03;102807.13;;;29.52;100.00
19845;BME280;10083;51.038;7.012;2023-06-22T08:55:48;102761.28;;;29.75;100.00
19845;BME280;10083;51.038;7.012;2023-06-22T08:58:16;102740.50;;;29.82;100.00
19845;BME280;10083;51.038;7.012;2023-06-22T09:00:45;102746.56;;;30.13;100.00
19845;BME280;10083;51.038;7.012;2023-06-22T09:03:13;102720.28;;;29.82;100.00
19845;BME280;10083;51.038;7.012;2023-06-22T09:05:41;102745.41;;;29.91;100.00
19845;BME280;10083;51.038;7.012;2023-06-22T09:08:11;102710.25;;;29.93;100.00
19845;BME280;10083;51.038;7.012;2023-06-22T09:10:38;102662.56;;;29.77;100.00
19845;BME280;10083;51.038;7.012;2023-06-22T09:13:06;102660.63;;;30.16;100.00
19845;BME280;10083;51.038;7.012;2023-06-22T09:15:34;102680.50;;;29.84;100.00
19845;BME280;10083;51.038;7.012;2023-06-22T09:18:01;102690.88;;;29.68;100.00
19845;BME280;10083;51.038;7.012;2023-06-22T09:20:28;102666.03;;;29.93;100.00
19845;BME280;10083;51.038;7.012;2023-06-22T09:22:56;102636.06;;;30.24;100.00
19845;BME280;10083;51.038;7.012;2023-06-22T09:25:25;102585.88;;;29.93;100.00
19845;BME280;10083;51.038;7.012;2023-06-22T09:27:52;102586.56;;;30.08;100.00
19845;BME280;10083;51.038;7.012;2023-06-22T09:30:20;102555.09;;;30.45;100.00
19845;BME280;10083;51.038;7.012;2023-06-22T09:32:48;102549.25;;;30.72;100.00
19845;BME280;10083;51.038;7.012;2023-06-22T09:35:16;102533.16;;;30.66;100.00
19845;BME280;10083;51.038;7.012;2023-06-22T09:37:44;102504.09;;;30.94;100.00
19845;BME280;10083;51.038;7.012;2023-06-22T09:40:12;102544.44;;;30.63;100.00
19845;BME280;10083;51.038;7.012;2023-06-22T09:42:48;102587.41;;;30.45;100.00
19845;BME280;10083;51.038;7.012;2023-06-22T09:45:16;102555.38;;;30.53;100.00
19845;BME280;10083;51.038;7.012;2023-06-22T09:47:43;102530.78;;;30.84;100.00
19845;BME280;10083;51.038;7.012;2023-06-22T09:50:10;102521.78;;;30.47;100.00
19845;BME280;10083;51.038;7.012;2023-06-22T09:52:37;102487.63;;;30.70;100.00
19845;BME280;10083;51.038;7.012;2023-06-22T09:55:06;102454.66;;;31.45;100.00
19845;BME280;10083;51.038;7.012;2023-06-22T09:57:34;102464.63;;;31.36;100.00
19845;BME280;10083;51.038;7.012;2023-06-22T10:00:03;102482.72;;;31.29;100.00
19845;BME280;10083;51.038;7.012;2023-06-22T10:02:32;102521.09;;;30.67;100.00
19845;BME280;10083;51.038;7.012;2023-06-22T10:04:59;102529.97;;;30.60;100.00
19845;BME280;10083;51.038;7.012;2023-06-22T10:07:26;102531.28;;;30.43;100.00
19845;BME280;10083;51.038;7.012;2023-06-22T10:09:53;102572.59;;;30.33;100.00
19845;BME280;10083;51.038;7.012;2023-06-22T10:12:21;102612.28;;;29.97;100.00
19845;BME280;10083;51.038;7.012;2023-06-22T10:14:50;102657.75;;;29.30;100.00
19845;BME280;10083;51.038;7.012;2023-06-22T10:17:19;102659.03;;;29.12;100.00
19845;BME280;10083;51.038;7.012;2023-06-22T10:19:51;102709.75;;;28.71;100.00
19845;BME280;10083;51.038;7.012;2023-06-22T10:22:18;102743.84;;;28.70;100.00
19845;BME280;10083;51.038;7.012;2023-06-22T10:24:50;102784.41;;;28.54;100.00
19845;BME280;10083;51.038;7.012;2023-06-22T10:27:18;102839.44;;;27.71;100.00
19845;BME280;10083;51.038;7.012;2023-06-22T10:30:05;102388.94;;;27.13;100.00
19845;BME280;10083;51.038;7.012;2023-06-22T10:32:35;101837.06;;;26.62;100.00
19845;BME280;10083;51.038;7.012;2023-06-22T10:35:03;101903.88;;;26.37;100.00
19845;BME280;10083;51.038;7.012;2023-06-22T10:37:31;101813.03;;;26.27;100.00
19845;BME280;10083;51.038;7.012;2023-06-22T10:40:01;101826.59;;;26.16;100.00
19845;BME280;10083;51.038;7.012;2023-06-22T10:42:29;101864.81;;;26.06;100.00
19845;BME280;10083;51.038;7.012;2023-06-22T10:44:57;101808.69;;;25.98;100.00
19845;BME280;10083;51.038;7.012;2023-06-22T10:47:24;101804.94;;;25.74;100.00
19845;BME280;10083;51.038;7.012;2023-06-22T10:50:10;101866.53;;;25.70;100.00
19845;BME280;10083;51.038;7.012;2023-06-22T10:52:37;102061.00;;;25.47;100.00
19845;BME280;10083;51.038;7.012;2023-06-22T10:55:17;102495.94;;;24.74;100.00
19845;BME280;10083;51.038;7.012;2023-06-22T10:57:44;103611.50;;;24.54;100.00
19845;BME280;10083;51.038;7.012;2023-06-22T11:00:25;105127.13;;;23.99;100.00
19845;BME280;10083;51.038;7.012;2023-06-22T11:02:53;106447.09;;;24.18;100.00
19845;BME280;10083;51.038;7.012;2023-06-22T11:05:21;108227.06;;;24.11;100.00
19845;BME280;10083;51.038;7.012;2023-06-22T11:07:49;110839.47;;;23.92;100.00
19845;BME280;10083;51.038;7.012;2023-06-22T11:10:16;113899.94;;;23.85;100.00
19845;BME280;10083;51.038;7.012;2023-06-22T11:12:52;116582.59;;;23.81;100.00
19845;BME280;10083;51.038;7.012;2023-06-22T11:15:19;119385.81;;;23.85;100.00
19845;BME280;10083;51.038;7.012;2023-06-22T11:17:55;122295.25;;;23.74;100.00
19845;BME280;10083;51.038;7.012;2023-06-22T11:20:24;125219.88;;;23.75;100.00
19845;BME280;10083;51.038;7.012;2023-06-22T11:22:56;127519.63;;;24.03;100.00
19845;BME280;10083;51.038;7.012;2023-06-22T11:25:24;128333.97;;;23.84;100.00
19845;BME280;10083;51.038;7.012;2023-06-22T11:27:55;129893.59;;;23.97;100.00
19845;BME280;10083;51.038;7.012;2023-06-22T11:30:23;131967.94;;;23.92;100.00
19845;BME280;10083;51.038;7.012;2023-06-22T11:33:19;134261.09;;;23.95;100.00
19845;BME280;10083;51.038;7.012;2023-06-22T11:35:51;137199.69;;;24.06;100.00
19845;BME280;10083;51.038;7.012;2023-06-22T11:38:29;139519.19;;;24.27;100.00
19845;BME280;10083;51.038;7.012;2023-06-22T11:41:02;143941.41;;;24.29;100.00
19845;BME280;10083;51.038;7.012;2023-06-22T11:43:32;150509.47;;;24.65;100.00
19845;BME280;10083;51.038;7.012;2023-06-22T11:46:00;152484.19;;;24.57;100.00
19845;BME280;10083;51.038;7.012;2023-06-22T11:48:27;153160.44;;;24.33;100.00
19845;BME280;10083;51.038;7.012;2023-06-22T11:50:56;153637.47;;;24.52;100.00
19845;BME280;10083;51.038;7.012;2023-06-22T11:53:25;153955.28;;;24.41;100.00
19845;BME280;10083;51.038;7.012;2023-06-22T11:55:53;154109.13;;;24.52;100.00
19845;BME280;10083;51.038;7.012;2023-06-22T11:58:40;154186.84;;;24.42;100.00
19845;BME280;10083;51.038;7.012;2023-06-22T12:01:07;154268.38;;;24.44;100.00
19845;BME280;10083;51.038;7.012;2023-06-22T12:03:45;154385.78;;;24.80;100.00
19845;BME280;10083;51.038;7.012;2023-06-22T12:06:15;154443.66;;;24.83;100.00
19845;BME280;10083;51.038;7.012;2023-06-22T12:08:42;154572.97;;;25.13;100.00
19845;BME280;10083;51.038;7.012;2023-06-22T12:11:11;154708.25;;;25.61;100.00
19845;BME280;10083;51.038;7.012;2023-06-22T12:13:39;154852.19;;;26.39;100.00
19845;BME280;10083;51.038;7.012;2023-06-22T12:16:06;155074.94;;;27.51;100.00
19845;BME280;10083;51.038;7.012;2023-06-22T12:18:34;155015.44;;;27.47;100.00
19845;BME280;10083;51.038;7.012;2023-06-22T12:21:29;155036.91;;;27.93;100.00
19845;BME280;10083;51.038;7.012;2023-06-22T12:23:58;148922.41;;;26.68;100.00
19845;BME280;10083;51.038;7.012;2023-06-22T12:26:28;144628.28;;;26.36;100.00
19845;BME280;10083;51.038;7.012;2023-06-22T12:29:04;143281.56;;;26.15;100.00
19845;BME280;10083;51.038;7.012;2023-06-22T12:31:33;143099.31;;;26.21;100.00
19845;BME280;10083;51.038;7.012;2023-06-22T12:34:03;142611.88;;;26.10;100.00
19845;BME280;10083;51.038;7.012;2023-06-22T12:36:33;141053.22;;;26.10;100.00
19845;BME280;10083;51.038;7.012;2023-06-22T12:39:03;139303.25;;;26.26;100.00
19845;BME280;10083;51.038;7.012;2023-06-22T12:41:44;137251.47;;;27.47;100.00
19845;BME280;10083;51.038;7.012;2023-06-22T12:44:35;132039.88;;;28.24;100.00
19845;BME280;10083;51.038;7.012;2023-06-22T12:47:02;127298.63;;;30.11;100.00
19845;BME280;10083;51.038;7.012;2023-06-22T12:49:42;120410.06;;;30.95;100.00
19845;BME280;10083;51.038;7.012;2023-06-22T12:52:12;115624.69;;;29.81;100.00
19845;BME280;10083;51.038;7.012;2023-06-22T12:54:43;112602.47;;;30.73;100.00
19845;BME280;10083;51.038;7.012;2023-06-22T12:57:10;109869.31;;;29.86;100.00